Terminal Aerodrome Forecast
Issued by NWS

Home | Current Version | Previous Version | Text Only | Print | Product List | Glossary On
Versions: 1 2 3 4 5 6 7 8 9 10 11 12 13 14 15 16 17 18 19 20 21 22 23 24
000
FTUS43 KSGF 222327
TAFJLN
TAF
KJLN 222327Z 2300/2324 26006KT P6SM SCT050 BKN250
     FM230200 VRB04KT P6SM SKC
      TEMPO 2309/2313 4SM BR
     FM231300 15007KT P6SM SCT050 PROB30 2318/2324 4SM TSRA
      BKN050CB=

USA.gov is the U.S. government's official web portal to all federal, state and local government web resources and services.